Aviation Digital Data Service (ADDS)

Output produced by METARs form (0242 UTC 24 July 2017)
found at http://www.aviationweather.gov/adds/metars/
 
TAF TTPP 232200Z 2400/2424 00000KT 9999 SCT016 
     TEMPO 2406/2411 5000 VCSH SHRA FEW010CB SCT1015 
     BECMG 2411/2413 09010KT SCT016 SCT038 
     PROB40 
     TEMPO 2414/2421 5000 VCSH SHRA FEW010CB BKN015 
     BECMG 2422/2424 10005KT SCT016
       
TAF TTCP 232200Z 2400/2424 09005KT 9999 SCT016 
     TEMPO 2406/2411 5000 VCSH SHRA FEW010CB SCT1015 
     BECMG 2411/2413 08010KT SCT016 SCT038 
     PROB40 
     TEMPO 2414/2421 5000 VCSH SHRA FEW010CB BKN015 
     BECMG 2422/2424 09005KT SCT016